Time;durP1;ratioP1;P1;durP2;ratioP2;P2;SDS_P1;SDS_P2;PMS_P1;PMS_P2;Temp;Humidity;BMP_temperature;BMP_pressure;BME280_temperature;BME280_humidity;BME280_pressure;Samples;Min_cycle;Max_cycle;Signal;HPM_P1;HPM_P2
2024/01/10 00:00:30;;;;;;;4.15;2.35;;;0.70;48.10;2.50;102951.00;;;;5030628;28;20669;-75
2024/01/10 00:02:57;;;;;;;2.95;2.00;;;0.70;48.20;2.40;102955.00;;;;5030676;28;20530;-75
2024/01/10 00:05:24;;;;;;;3.70;1.88;;;0.70;48.30;2.50;102949.00;;;;5025934;28;20230;-76
2024/01/10 00:07:51;;;;;;;3.35;2.03;;;0.70;48.40;2.50;102958.00;;;;5026198;28;20189;-75
2024/01/10 00:10:18;;;;;;;2.75;1.88;;;0.70;48.50;2.50;102952.00;;;;5032624;28;20207;-75
2024/01/10 00:12:46;;;;;;;3.40;1.88;;;0.70;48.60;2.50;102948.00;;;;5032588;28;20303;-75
2024/01/10 00:15:13;;;;;;;3.80;2.25;;;0.70;48.60;2.50;102950.00;;;;5032072;28;20695;-75
2024/01/10 00:17:41;;;;;;;4.72;2.13;;;0.70;49.20;2.50;102938.00;;;;5038457;28;20200;-76
2024/01/10 00:20:09;;;;;;;3.17;2.00;;;0.70;48.70;2.50;102941.00;;;;5032471;28;20220;-75
2024/01/10 00:22:36;;;;;;;3.33;2.35;;;0.70;48.80;2.50;102947.00;;;;5032797;28;20189;-75
2024/01/10 00:25:04;;;;;;;3.67;2.30;;;0.70;48.80;2.50;102937.00;;;;5032432;28;20224;-75
2024/01/10 00:27:31;;;;;;;4.28;2.40;;;0.70;48.80;2.50;102947.00;;;;5032964;28;20200;-75
2024/01/10 00:29:59;;;;;;;3.65;1.90;;;0.70;48.90;2.40;102932.00;;;;5040883;28;20214;-75
2024/01/10 00:32:26;;;;;;;3.38;2.10;;;0.70;48.90;2.40;102932.00;;;;5047006;28;20925;-75
2024/01/10 00:34:53;;;;;;;2.58;1.85;;;0.70;49.00;2.40;102931.00;;;;5036675;28;20197;-74
2024/01/10 00:37:20;;;;;;;3.55;1.85;;;0.60;48.90;2.40;102926.00;;;;5048155;28;20682;-75
2024/01/10 00:39:48;;;;;;;2.95;1.95;;;0.60;49.00;2.40;102931.00;;;;5051004;28;20282;-74
2024/01/10 00:42:15;;;;;;;3.10;1.92;;;0.60;49.00;2.40;102930.00;;;;5051645;28;20206;-75
2024/01/10 00:44:42;;;;;;;3.55;2.38;;;0.60;49.20;2.40;102933.00;;;;5033163;28;20323;-75
2024/01/10 00:47:12;;;;;;;3.90;2.22;;;0.60;49.20;2.40;102922.00;;;;5031974;28;20200;-76
2024/01/10 00:49:39;;;;;;;3.65;2.13;;;0.60;49.30;2.40;102926.00;;;;5046587;28;20200;-76
2024/01/10 00:52:06;;;;;;;3.55;2.20;;;0.60;49.30;2.40;102928.00;;;;5047025;28;20196;-75
2024/01/10 00:54:33;;;;;;;3.38;2.20;;;0.60;49.30;2.40;102931.00;;;;5048423;28;20653;-74
2024/01/10 00:57:00;;;;;;;3.25;1.92;;;0.60;49.30;2.40;102922.00;;;;5029178;28;20290;-75
2024/01/10 00:59:27;;;;;;;2.50;1.85;;;0.60;49.50;2.40;102922.00;;;;5050143;28;20216;-76
2024/01/10 01:01:55;;;;;;;3.15;2.15;;;0.60;49.50;2.30;102920.00;;;;5051471;28;20192;-76
2024/01/10 01:04:23;;;;;;;3.75;2.15;;;0.50;49.40;2.30;102917.00;;;;5035650;28;20238;-76
2024/01/10 01:06:50;;;;;;;3.83;2.45;;;0.60;49.60;2.30;102895.00;;;;5051736;28;20203;-76
2024/01/10 01:09:17;;;;;;;2.95;2.28;;;0.50;49.50;2.30;102899.00;;;;5048106;28;20203;-76
2024/01/10 01:11:44;;;;;;;4.20;2.53;;;0.50;49.50;2.30;102886.00;;;;5049211;28;20199;-75
2024/01/10 01:14:12;;;;;;;4.80;2.63;;;0.50;49.60;2.20;102882.00;;;;5031269;28;20208;-75
2024/01/10 01:16:39;;;;;;;4.38;2.35;;;0.50;49.60;2.20;102889.00;;;;5032234;28;20284;-75
2024/01/10 01:19:06;;;;;;;4.07;2.20;;;0.50;49.70;2.20;102883.00;;;;5045155;28;20223;-76
2024/01/10 01:21:34;;;;;;;3.53;2.15;;;0.50;49.70;2.20;102883.00;;;;5050586;28;20200;-76
2024/01/10 01:24:01;;;;;;;4.25;2.53;;;0.40;49.70;2.10;102881.00;;;;5050730;28;20215;-74
2024/01/10 01:26:28;;;;;;;4.00;2.30;;;0.40;49.70;2.10;102880.00;;;;5031820;28;20279;-75
2024/01/10 01:28:55;;;;;;;5.45;2.45;;;0.40;49.70;2.10;102875.00;;;;5033118;28;20207;-76
2024/01/10 01:31:22;;;;;;;3.53;2.20;;;0.40;49.80;2.10;102885.00;;;;5031078;28;20312;-76
2024/01/10 01:33:49;;;;;;;4.78;2.58;;;0.30;49.80;2.10;102885.00;;;;5032103;28;20288;-76
2024/01/10 01:36:16;;;;;;;3.72;2.30;;;0.30;49.90;2.00;102881.00;;;;5031377;28;20747;-76
2024/01/10 01:38:45;;;;;;;3.67;2.10;;;0.30;50.00;2.00;102881.00;;;;5041016;28;20303;-75
2024/01/10 01:41:12;;;;;;;4.53;2.80;;;0.30;50.00;2.00;102886.00;;;;5047663;28;20203;-75
2024/01/10 01:43:39;;;;;;;4.75;2.40;;;0.30;50.00;2.00;102879.00;;;;5031768;28;20222;-75
2024/01/10 01:46:08;;;;;;;3.22;1.77;;;0.30;50.10;2.00;102877.00;;;;5029959;28;20284;-75
2024/01/10 01:48:36;;;;;;;3.35;2.03;;;0.30;50.10;2.00;102886.00;;;;5032750;28;20196;-74
2024/01/10 01:51:07;;;;;;;4.13;2.30;;;0.30;50.10;2.00;102884.00;;;;5029981;28;20209;-75
2024/01/10 01:53:36;;;;;;;4.00;2.67;;;0.30;50.20;2.00;102886.00;;;;5051134;28;20199;-75
2024/01/10 01:56:08;;;;;;;4.28;2.50;;;0.30;50.20;1.90;102882.00;;;;5046989;28;20286;-75
2024/01/10 01:58:37;;;;;;;3.72;2.28;;;0.20;50.20;2.00;102874.00;;;;5033375;28;20200;-74
2024/01/10 02:01:06;;;;;;;4.15;2.35;;;0.30;50.30;2.00;102874.00;;;;5031144;28;20193;-75
2024/01/10 02:03:33;;;;;;;3.60;2.03;;;0.20;50.30;2.00;102866.00;;;;5037055;28;20235;-76
2024/01/10 02:06:03;;;;;;;4.18;2.30;;;0.30;50.30;2.00;102860.00;;;;5034126;28;20220;-75
2024/01/10 02:08:31;;;;;;;4.53;2.33;;;0.30;50.30;2.00;102870.00;;;;5036632;28;20195;-75
2024/01/10 02:10:58;;;;;;;3.05;1.90;;;0.30;50.40;2.00;102874.00;;;;5038065;28;20666;-74
2024/01/10 02:13:26;;;;;;;4.68;2.17;;;0.20;50.30;2.00;102866.00;;;;5028096;28;20236;-75
2024/01/10 02:15:54;;;;;;;4.22;2.45;;;0.30;50.30;2.00;102874.00;;;;5034639;28;20195;-75
2024/01/10 02:18:21;;;;;;;4.00;2.42;;;0.20;50.30;2.00;102877.00;;;;5046241;28;20257;-75
2024/01/10 02:20:49;;;;;;;3.58;2.28;;;0.30;50.40;2.00;102876.00;;;;5038084;28;20224;-75
2024/01/10 02:23:16;;;;;;;3.85;2.42;;;0.20;50.40;2.00;102869.00;;;;5030218;28;20291;-75
2024/01/10 02:25:45;;;;;;;3.80;2.30;;;0.30;50.50;2.00;102877.00;;;;5042989;28;20230;-75
2024/01/10 02:28:12;;;;;;;4.38;2.45;;;0.20;50.40;2.00;102873.00;;;;5038357;28;20324;-75
2024/01/10 02:30:39;;;;;;;3.25;2.30;;;0.20;50.40;2.00;102862.00;;;;5054486;28;20659;-75
2024/01/10 02:33:06;;;;;;;3.15;2.00;;;0.30;50.50;2.00;102861.00;;;;5043449;28;20206;-76
2024/01/10 02:35:33;;;;;;;4.10;2.53;;;0.20;50.40;2.00;102859.00;;;;5034725;28;20322;-76
2024/01/10 02:38:01;;;;;;;2.85;1.85;;;0.20;50.50;2.00;102867.00;;;;5043354;28;20385;-76
2024/01/10 02:40:28;;;;;;;3.30;2.30;;;0.20;50.60;2.00;102863.00;;;;5034775;28;20188;-76
2024/01/10 02:42:56;;;;;;;3.75;2.38;;;0.20;50.60;2.00;102865.00;;;;5034945;28;20232;-76
2024/01/10 02:45:23;;;;;;;3.95;2.20;;;0.20;50.60;2.00;102860.00;;;;5032976;28;20243;-76
2024/01/10 02:47:50;;;;;;;3.58;2.28;;;0.20;50.60;2.00;102860.00;;;;5045526;28;20282;-75
2024/01/10 02:50:18;;;;;;;3.80;2.17;;;0.20;50.70;2.00;102859.00;;;;5044459;28;20200;-76
2024/01/10 02:52:45;;;;;;;3.92;2.55;;;0.20;50.70;2.00;102859.00;;;;5044338;28;20200;-75
2024/01/10 02:55:12;;;;;;;4.80;2.80;;;0.20;50.70;2.00;102862.00;;;;5052692;28;20200;-75
2024/01/10 02:57:39;;;;;;;3.85;2.30;;;0.20;50.80;2.00;102860.00;;;;5041139;28;20201;-75
2024/01/10 03:00:09;;;;;;;3.92;2.60;;;0.20;50.90;2.00;102862.00;;;;5033891;28;20204;-75
2024/01/10 03:02:36;;;;;;;3.20;2.17;;;0.20;51.00;2.00;102865.00;;;;5042174;28;20225;-75
2024/01/10 03:05:04;;;;;;;4.75;2.63;;;0.20;51.10;2.00;102858.00;;;;5054483;28;20229;-75
2024/01/10 03:07:31;;;;;;;4.15;2.58;;;0.20;51.00;2.00;102862.00;;;;5040898;28;20210;-74
2024/01/10 03:09:58;;;;;;;4.75;2.47;;;0.20;51.00;2.00;102859.00;;;;5039479;28;20274;-75
2024/01/10 03:12:25;;;;;;;3.75;2.55;;;0.20;51.10;2.00;102862.00;;;;5052069;28;20206;-75
2024/01/10 03:14:52;;;;;;;4.25;2.40;;;0.20;51.10;2.00;102855.00;;;;5034100;28;20287;-75
2024/01/10 03:17:20;;;;;;;4.32;2.40;;;0.20;51.10;2.00;102852.00;;;;5030920;28;20207;-75
2024/01/10 03:19:47;;;;;;;4.20;2.42;;;0.20;51.10;2.00;102853.00;;;;5036044;28;20217;-74
2024/01/10 03:22:13;;;;;;;4.32;2.55;;;0.20;51.20;2.00;102845.00;;;;5051791;28;20286;-75
2024/01/10 03:24:40;;;;;;;3.28;2.25;;;0.20;51.20;2.00;102842.00;;;;5044201;28;20220;-75
2024/01/10 03:27:07;;;;;;;5.03;2.97;;;0.20;51.20;2.00;102851.00;;;;5053525;28;20275;-75
2024/01/10 03:29:35;;;;;;;4.57;3.00;;;0.20;51.20;2.00;102854.00;;;;5054148;28;20208;-75
2024/01/10 03:32:02;;;;;;;3.38;2.35;;;0.20;52.00;2.00;102841.00;;;;5043070;28;20202;-75
2024/01/10 03:34:30;;;;;;;5.10;2.80;;;0.20;51.30;2.00;102853.00;;;;5038004;28;20665;-75
2024/01/10 03:36:57;;;;;;;4.53;2.58;;;0.20;51.40;2.00;102842.00;;;;5033702;28;20220;-74
2024/01/10 03:39:24;;;;;;;3.22;2.20;;;0.20;51.30;2.00;102840.00;;;;5052019;28;20203;-75
2024/01/10 03:41:51;;;;;;;4.90;2.97;;;0.20;51.40;2.00;102846.00;;;;5047529;28;20577;-74
2024/01/10 03:44:18;;;;;;;3.83;2.63;;;0.20;51.30;2.00;102828.00;;;;5047526;28;20200;-75
2024/01/10 03:46:45;;;;;;;3.00;2.20;;;0.10;51.30;2.00;102837.00;;;;5038224;28;20196;-75
2024/01/10 03:49:12;;;;;;;4.30;3.00;;;0.20;51.40;2.00;102829.00;;;;5036758;28;20210;-76
2024/01/10 03:51:41;;;;;;;5.05;2.70;;;0.10;51.40;2.00;102832.00;;;;5051686;28;20203;-76
2024/01/10 03:54:08;;;;;;;5.80;3.33;;;0.20;51.50;2.00;102839.00;;;;5050641;28;20253;-74
2024/01/10 03:56:35;;;;;;;4.68;2.95;;;0.20;51.50;2.00;102817.00;;;;5046939;28;20192;-75
2024/01/10 03:59:02;;;;;;;4.60;2.78;;;0.10;51.50;2.00;102824.00;;;;5034348;28;20697;-76
2024/01/10 04:01:29;;;;;;;5.13;2.78;;;0.20;51.50;2.00;102823.00;;;;5036005;28;20666;-75
2024/01/10 04:03:57;;;;;;;5.20;2.60;;;0.10;51.50;2.00;102816.00;;;;5033092;28;20193;-75
2024/01/10 04:06:24;;;;;;;4.07;2.47;;;0.10;51.50;2.00;102811.00;;;;5051563;28;20231;-76
2024/01/10 04:08:52;;;;;;;3.90;2.67;;;0.10;51.40;1.90;102816.00;;;;5051000;28;20200;-74
2024/01/10 04:11:19;;;;;;;5.45;3.17;;;0.10;51.50;1.90;102814.00;;;;5051892;28;20269;-75
2024/01/10 04:13:46;;;;;;;3.92;2.45;;;0.10;51.50;1.90;102812.00;;;;5052217;28;20290;-75
2024/01/10 04:16:13;;;;;;;3.13;2.28;;;0.10;51.60;1.90;102812.00;;;;5035664;28;20205;-76
2024/01/10 04:18:40;;;;;;;4.38;2.92;;;0.00;51.50;1.90;102810.00;;;;5047970;28;20204;-74
2024/01/10 04:21:08;;;;;;;5.60;3.13;;;0.00;51.50;1.90;102807.00;;;;5051805;28;20235;-75
2024/01/10 04:23:35;;;;;;;4.70;2.97;;;0.00;51.50;1.90;102807.00;;;;5053032;28;20487;-74
2024/01/10 04:26:04;;;;;;;4.40;2.72;;;0.10;51.60;1.80;102809.00;;;;5051656;28;20227;-75
2024/01/10 04:28:31;;;;;;;5.38;3.20;;;0.00;51.60;1.80;102807.00;;;;5051892;28;20203;-75
2024/01/10 04:30:58;;;;;;;5.20;3.00;;;0.00;51.60;1.80;102807.00;;;;5032223;28;20283;-76
2024/01/10 04:33:25;;;;;;;4.30;2.63;;;0.00;51.60;1.80;102804.00;;;;5050829;28;20198;-76
2024/01/10 04:35:52;;;;;;;5.40;3.00;;;0.00;51.60;1.80;102798.00;;;;5036588;28;20513;-75
2024/01/10 04:38:20;;;;;;;6.78;2.92;;;-0.10;51.60;1.80;102793.00;;;;5051472;28;20291;-76
2024/01/10 04:40:47;;;;;;;5.68;3.40;;;-0.10;51.60;1.70;102803.00;;;;5049728;28;20909;-76
2024/01/10 04:43:15;;;;;;;4.20;2.80;;;-0.10;51.60;1.70;102788.00;;;;5049605;28;20282;-75
2024/01/10 04:45:42;;;;;;;3.42;2.25;;;-0.10;51.70;1.70;102795.00;;;;5048268;28;20228;-75
2024/01/10 04:48:09;;;;;;;4.90;2.95;;;-0.10;51.80;1.70;102788.00;;;;5031717;28;20205;-75
2024/01/10 04:50:36;;;;;;;6.82;2.75;;;-0.10;51.70;1.60;102777.00;;;;5031615;28;20211;-75
2024/01/10 04:53:03;;;;;;;4.38;2.83;;;-0.10;51.70;1.60;102785.00;;;;5048427;28;20227;-75
2024/01/10 04:55:30;;;;;;;3.92;2.35;;;-0.20;51.70;1.60;102787.00;;;;5031531;28;20212;-76
2024/01/10 04:57:57;;;;;;;4.15;2.88;;;-0.20;51.70;1.60;102780.00;;;;5048156;28;20216;-75
2024/01/10 05:00:26;;;;;;;6.75;3.60;;;-0.20;51.70;1.50;102774.00;;;;5052636;28;20287;-77
2024/01/10 05:02:53;;;;;;;9.75;3.42;;;-0.20;51.70;1.50;102770.00;;;;5035774;28;20202;-75
2024/01/10 05:05:23;;;;;;;10.73;3.05;;;-0.20;51.70;1.50;102780.00;;;;5043994;28;20273;-75
2024/01/10 05:07:50;;;;;;;5.72;3.25;;;-0.30;51.70;1.50;102783.00;;;;5032273;28;20646;-76
2024/01/10 05:10:17;;;;;;;4.78;3.30;;;-0.30;51.70;1.50;102781.00;;;;5031592;28;20204;-75
2024/01/10 05:12:45;;;;;;;4.90;2.72;;;-0.30;51.70;1.40;102787.00;;;;5030278;28;20199;-76
2024/01/10 05:15:12;;;;;;;4.07;2.60;;;-0.30;51.80;1.40;102787.00;;;;5032202;28;20199;-74
2024/01/10 05:17:40;;;;;;;4.50;2.88;;;-0.30;51.80;1.40;102787.00;;;;5038383;28;20200;-74
2024/01/10 05:20:09;;;;;;;6.43;2.78;;;-0.40;51.90;1.40;102789.00;;;;5031194;28;20310;-75
2024/01/10 05:22:36;;;;;;;3.63;2.63;;;-0.30;52.00;1.40;102773.00;;;;5032630;28;20203;-74
2024/01/10 05:25:04;;;;;;;4.82;2.92;;;-0.30;52.00;1.50;102761.00;;;;5050256;28;20222;-75
2024/01/10 05:27:31;;;;;;;5.20;3.00;;;-0.30;52.00;1.50;102766.00;;;;5048906;28;20203;-74
2024/01/10 05:30:00;;;;;;;5.50;3.00;;;-0.30;52.00;1.40;102764.00;;;;5031201;28;20283;-75
2024/01/10 05:32:27;;;;;;;5.07;3.08;;;-0.30;52.00;1.40;102763.00;;;;5034018;28;20205;-75
2024/01/10 05:34:56;;;;;;;5.90;3.42;;;-0.30;52.00;1.40;102765.00;;;;5051804;28;20203;-75
2024/01/10 05:37:23;;;;;;;5.20;3.58;;;-0.30;52.00;1.40;102767.00;;;;5051814;28;20740;-75
2024/01/10 05:39:50;;;;;;;4.70;3.00;;;-0.30;52.00;1.40;102765.00;;;;5035825;28;20197;-75
2024/01/10 05:42:18;;;;;;;4.63;2.95;;;-0.30;52.00;1.40;102762.00;;;;5031532;28;20192;-75
2024/01/10 05:44:45;;;;;;;5.22;3.03;;;-0.30;52.00;1.40;102772.00;;;;5048151;28;20195;-74
2024/01/10 05:47:13;;;;;;;5.38;3.20;;;-0.40;52.00;1.40;102770.00;;;;5051483;28;20652;-76
2024/01/10 05:49:40;;;;;;;5.18;3.17;;;-0.40;52.00;1.40;102773.00;;;;5031301;28;20243;-76
2024/01/10 05:52:08;;;;;;;4.80;2.85;;;-0.40;52.00;1.40;102775.00;;;;5029484;28;20210;-76
2024/01/10 05:54:35;;;;;;;4.45;2.40;;;-0.40;52.00;1.40;102782.00;;;;5044375;28;20204;-73
2024/01/10 05:57:03;;;;;;;5.60;2.83;;;-0.40;52.00;1.40;102784.00;;;;5043123;28;20310;-74
2024/01/10 05:59:30;;;;;;;5.82;2.55;;;-0.40;52.10;1.40;102778.00;;;;5044323;28;20203;-74
2024/01/10 06:01:58;;;;;;;4.68;3.30;;;-0.40;52.60;1.40;102782.00;;;;5051787;28;20290;-74
2024/01/10 06:04:25;;;;;;;5.63;3.15;;;-0.40;52.10;1.40;102782.00;;;;5042546;28;20188;-74
2024/01/10 06:06:52;;;;;;;3.25;2.63;;;-0.40;52.00;1.40;102782.00;;;;5041385;28;20228;-75
2024/01/10 06:09:21;;;;;;;3.63;2.80;;;-0.40;52.10;1.40;102780.00;;;;5033831;28;20570;-75
2024/01/10 06:11:49;;;;;;;6.78;3.22;;;-0.40;52.10;1.40;102783.00;;;;5026443;28;20695;-76
2024/01/10 06:14:16;;;;;;;6.68;3.35;;;-0.40;52.10;1.40;102777.00;;;;5034630;28;20661;-75
2024/01/10 06:16:43;;;;;;;4.25;2.83;;;-0.40;52.10;1.40;102774.00;;;;5033571;28;20200;-75
2024/01/10 06:19:11;;;;;;;5.70;2.95;;;-0.40;52.10;1.40;102770.00;;;;5041903;28;20302;-75
2024/01/10 06:21:38;;;;;;;5.40;3.30;;;-0.40;52.10;1.40;102764.00;;;;5034539;28;20702;-75
2024/01/10 06:24:06;;;;;;;3.90;2.95;;;-0.40;52.20;1.40;102769.00;;;;5028292;28;20211;-75
2024/01/10 06:26:34;;;;;;;5.70;3.38;;;-0.40;52.20;1.40;102766.00;;;;5040834;28;20307;-75
2024/01/10 06:29:01;;;;;;;4.53;2.92;;;-0.40;52.30;1.40;102758.00;;;;5049806;28;20198;-75
2024/01/10 06:31:28;;;;;;;4.50;3.20;;;-0.40;52.40;1.40;102758.00;;;;5040121;28;20228;-75
2024/01/10 06:33:56;;;;;;;4.88;3.20;;;-0.40;52.20;1.40;102755.00;;;;5034963;28;20286;-75
2024/01/10 06:36:23;;;;;;;6.07;3.17;;;-0.40;52.20;1.40;102763.00;;;;5038588;28;20230;-75
2024/01/10 06:38:50;;;;;;;5.05;2.88;;;-0.40;52.20;1.40;102757.00;;;;5048021;28;20192;-74
2024/01/10 06:41:17;;;;;;;5.28;3.53;;;-0.40;52.30;1.40;102760.00;;;;5053196;28;20187;-75
2024/01/10 06:43:46;;;;;;;4.78;3.15;;;-0.40;52.30;1.40;102766.00;;;;5034806;28;20202;-74
2024/01/10 06:46:13;;;;;;;6.93;3.40;;;-0.40;52.80;1.40;102752.00;;;;5045564;28;20223;-74
2024/01/10 06:48:39;;;;;;;6.30;3.47;;;-0.40;52.90;1.40;102752.00;;;;5037471;28;20649;-74
2024/01/10 06:51:12;;;;;;;5.60;3.42;;;-0.40;52.20;1.40;102747.00;;;;5033712;28;20203;-74
2024/01/10 06:53:39;;;;;;;5.30;3.13;;;-0.40;52.20;1.40;102758.00;;;;5046644;28;20200;-74
2024/01/10 06:56:09;;;;;;;5.15;3.67;;;-0.40;52.20;1.40;102762.00;;;;5034063;28;20303;-75
2024/01/10 06:58:36;;;;;;;5.18;3.20;;;-0.40;52.20;1.40;102757.00;;;;5051599;28;20214;-74
2024/01/10 07:01:05;;;;;;;5.43;3.60;;;-0.40;52.30;1.40;102755.00;;;;5033635;28;20200;-74
2024/01/10 07:03:34;;;;;;;5.97;3.58;;;-0.40;52.40;1.40;102748.00;;;;5044229;28;20192;-75
2024/01/10 07:06:01;;;;;;;7.03;3.42;;;-0.40;52.30;1.40;102759.00;;;;5048471;28;20598;-75
2024/01/10 07:08:30;;;;;;;6.60;4.22;;;-0.40;52.30;1.40;102770.00;;;;5044026;28;20200;-74
2024/01/10 07:10:57;;;;;;;5.53;3.15;;;-0.40;52.30;1.40;102766.00;;;;5042714;28;20225;-74
2024/01/10 07:13:24;;;;;;;5.88;3.85;;;-0.40;52.30;1.40;102756.00;;;;5053633;28;20203;-75
2024/01/10 07:15:52;;;;;;;6.30;3.85;;;-0.40;52.30;1.40;102758.00;;;;5036501;28;20203;-75
2024/01/10 07:18:20;;;;;;;7.97;4.10;;;-0.50;52.20;1.40;102754.00;;;;5034260;28;20251;-74
2024/01/10 07:20:47;;;;;;;7.32;3.97;;;-0.40;52.20;1.40;102763.00;;;;5034218;28;20220;-75
2024/01/10 07:23:14;;;;;;;5.05;3.50;;;-0.40;52.30;1.40;102777.00;;;;5051474;28;20218;-74
2024/01/10 07:25:41;;;;;;;4.97;3.20;;;-0.40;52.20;1.40;102772.00;;;;5043510;28;20673;-75
2024/01/10 07:28:08;;;;;;;7.13;3.88;;;-0.40;52.10;1.40;102775.00;;;;5019583;28;20199;-75
2024/01/10 07:30:36;;;;;;;7.80;3.60;;;-0.40;52.20;1.40;102770.00;;;;5031578;28;20562;-74
2024/01/10 07:33:03;;;;;;;5.22;3.38;;;-0.40;52.10;1.40;102769.00;;;;5031628;28;20287;-74
2024/01/10 07:35:31;;;;;;;6.15;3.53;;;-0.50;52.00;1.40;102759.00;;;;5014177;28;20255;-75
2024/01/10 07:37:58;;;;;;;6.75;3.78;;;-0.40;52.70;1.40;102771.00;;;;5014002;28;20292;-75
2024/01/10 07:40:25;;;;;;;6.57;3.78;;;-0.50;52.10;1.30;102785.00;;;;5034381;28;20202;-75
2024/01/10 07:42:52;;;;;;;6.35;3.63;;;-0.50;52.10;1.40;102790.00;;;;5033710;28;20684;-75
2024/01/10 07:45:19;;;;;;;5.80;4.03;;;-0.40;52.10;1.40;102788.00;;;;5030415;28;20200;-74
2024/01/10 07:47:46;;;;;;;6.97;4.05;;;-0.40;52.00;1.40;102797.00;;;;5030413;28;20226;-74
2024/01/10 07:50:14;;;;;;;8.95;4.28;;;-0.40;52.10;1.40;102797.00;;;;5033555;28;20207;-75
2024/01/10 07:52:44;;;;;;;5.57;3.97;;;-0.40;52.10;1.40;102798.00;;;;5033648;28;20724;-75
2024/01/10 07:55:13;;;;;;;7.30;3.70;;;-0.40;52.10;1.40;102790.00;;;;5034665;28;20590;-74
2024/01/10 07:57:42;;;;;;;6.65;3.97;;;-0.40;52.00;1.40;102791.00;;;;5053103;28;20200;-74
2024/01/10 08:00:10;;;;;;;5.85;3.75;;;-0.40;52.00;1.40;102795.00;;;;5053223;28;20627;-74
2024/01/10 08:02:37;;;;;;;6.10;3.58;;;-0.40;52.00;1.50;102790.00;;;;5035947;28;20363;-75
2024/01/10 08:05:08;;;;;;;6.97;4.82;;;-0.40;52.00;1.50;102802.00;;;;5028081;28;20196;-73
2024/01/10 08:07:36;;;;;;;7.13;3.95;;;-0.40;52.00;1.50;102803.00;;;;5030988;28;20282;-74
2024/01/10 08:10:05;;;;;;;8.40;4.65;;;-0.40;51.90;1.50;102800.00;;;;5033102;28;20212;-74
2024/01/10 08:12:32;;;;;;;5.55;3.53;;;-0.30;52.10;1.50;102798.00;;;;5032798;28;20204;-74
2024/01/10 08:14:59;;;;;;;6.78;3.97;;;-0.30;52.10;1.50;102805.00;;;;5035708;28;20196;-74
2024/01/10 08:17:26;;;;;;;7.28;4.43;;;-0.30;52.00;1.50;102793.00;;;;5030957;28;20674;-74
2024/01/10 08:19:53;;;;;;;7.13;4.32;;;-0.30;51.90;1.60;102793.00;;;;5029507;28;20743;-75
2024/01/10 08:22:22;;;;;;;7.03;4.15;;;-0.30;52.00;1.60;102792.00;;;;5031390;28;20231;-75
2024/01/10 08:24:49;;;;;;;7.18;4.18;;;-0.30;52.00;1.60;102794.00;;;;5023441;28;20227;-74
2024/01/10 08:27:18;;;;;;;6.18;4.25;;;-0.20;52.00;1.60;102788.00;;;;5025927;28;20322;-74
2024/01/10 08:29:46;;;;;;;8.88;4.63;;;-0.30;51.90;1.70;102792.00;;;;5033774;28;20212;-75
2024/01/10 08:32:14;;;;;;;5.82;3.83;;;-0.20;51.90;1.70;102788.00;;;;5030706;28;20192;-74
2024/01/10 08:34:42;;;;;;;10.27;4.82;;;-0.20;52.00;1.70;102783.00;;;;5030738;28;20224;-74
2024/01/10 08:37:09;;;;;;;6.85;4.35;;;-0.20;51.90;1.80;102791.00;;;;5032248;28;20200;-74
2024/01/10 08:39:37;;;;;;;7.70;4.45;;;-0.20;51.90;1.80;102799.00;;;;5032727;28;20258;-74
2024/01/10 08:42:05;;;;;;;6.85;4.32;;;-0.10;51.80;1.80;102793.00;;;;5028815;28;20270;-74
2024/01/10 08:44:34;;;;;;;7.47;4.35;;;-0.10;51.70;1.80;102780.00;;;;5027365;28;20200;-75
2024/01/10 08:47:01;;;;;;;6.53;4.13;;;-0.10;52.30;1.80;102785.00;;;;5036988;28;20700;-74
2024/01/10 08:49:28;;;;;;;7.07;3.53;;;-0.10;51.70;1.80;102785.00;;;;5037586;28;20643;-74
2024/01/10 08:51:55;;;;;;;6.40;4.35;;;0.00;51.70;1.90;102785.00;;;;5026548;28;20591;-74
2024/01/10 08:54:22;;;;;;;8.45;4.75;;;0.00;51.70;1.90;102787.00;;;;5026012;28;20200;-74
2024/01/10 08:56:49;;;;;;;7.22;3.97;;;0.00;51.60;1.90;102784.00;;;;5027835;28;20667;-74
2024/01/10 08:59:16;;;;;;;6.97;4.18;;;0.00;51.60;1.90;102781.00;;;;5030379;28;20206;-75
2024/01/10 09:01:45;;;;;;;7.53;4.55;;;0.10;51.60;1.90;102793.00;;;;5032994;28;20224;-74
2024/01/10 09:04:13;;;;;;;7.43;4.40;;;0.10;51.50;2.00;102799.00;;;;5032275;28;20200;-74
2024/01/10 09:06:40;;;;;;;6.63;4.25;;;0.10;51.50;2.00;102805.00;;;;5025620;28;20221;-74
2024/01/10 09:09:07;;;;;;;8.75;4.85;;;0.10;51.40;2.00;102797.00;;;;5023477;28;20544;-75
2024/01/10 09:11:35;;;;;;;7.72;4.60;;;0.20;51.50;2.10;102794.00;;;;5028688;28;20204;-74
2024/01/10 09:14:02;;;;;;;7.57;4.40;;;0.20;51.50;2.10;102789.00;;;;5036785;28;20254;-74
2024/01/10 09:16:29;;;;;;;7.25;4.50;;;0.20;51.40;2.20;102791.00;;;;5036788;28;20204;-74
2024/01/10 09:18:58;;;;;;;6.32;4.15;;;0.30;51.40;2.20;102798.00;;;;5029813;28;20226;-74
2024/01/10 09:21:26;;;;;;;9.50;4.20;;;0.30;51.40;2.20;102795.00;;;;5039347;28;20273;-74
2024/01/10 09:23:53;;;;;;;7.38;4.47;;;0.30;51.30;2.30;102804.00;;;;5035049;28;20497;-74
2024/01/10 09:26:21;;;;;;;7.15;4.70;;;0.40;51.30;2.30;102793.00;;;;5029966;28;20207;-75
2024/01/10 09:28:48;;;;;;;9.90;4.93;;;0.40;51.20;2.40;102791.00;;;;5030293;28;20203;-75
2024/01/10 09:31:15;;;;;;;8.70;4.65;;;0.50;51.30;2.40;102793.00;;;;5041457;28;20202;-74
2024/01/10 09:33:43;;;;;;;7.03;4.55;;;0.50;51.10;2.50;102789.00;;;;5030282;28;20227;-74
2024/01/10 09:36:11;;;;;;;7.30;4.32;;;0.60;51.10;2.50;102785.00;;;;5028816;28;20273;-74
2024/01/10 09:38:38;;;;;;;7.85;4.32;;;0.60;51.10;2.50;102779.00;;;;5030838;28;20200;-75
2024/01/10 09:41:06;;;;;;;6.70;4.43;;;0.60;51.00;2.60;102772.00;;;;5031067;28;20291;-73
2024/01/10 09:43:34;;;;;;;8.75;4.47;;;0.70;51.00;2.60;102778.00;;;;5028288;28;20200;-75
2024/01/10 09:46:03;;;;;;;7.80;4.32;;;0.70;50.80;2.70;102776.00;;;;5029001;28;20677;-74
2024/01/10 09:48:31;;;;;;;7.05;4.65;;;0.80;50.80;2.70;102781.00;;;;5037248;28;20223;-75
2024/01/10 09:50:58;;;;;;;6.88;4.00;;;0.80;50.90;2.80;102786.00;;;;5029566;28;20570;-75
2024/01/10 09:53:29;;;;;;;9.10;4.90;;;0.90;50.80;2.80;102788.00;;;;5028157;28;20200;-74
2024/01/10 09:55:57;;;;;;;7.88;4.32;;;0.90;50.70;2.90;102789.00;;;;5028458;28;20288;-74
2024/01/10 09:58:25;;;;;;;8.77;4.28;;;1.00;50.70;3.00;102799.00;;;;5019058;28;20203;-75
2024/01/10 10:00:52;;;;;;;8.45;4.80;;;1.00;50.60;3.00;102798.00;;;;5021851;28;20196;-74
2024/01/10 10:03:20;;;;;;;10.40;4.68;;;1.10;50.60;3.10;102794.00;;;;5022997;28;20689;-75
2024/01/10 10:05:47;;;;;;;6.60;4.28;;;1.20;50.60;3.10;102785.00;;;;5029444;28;20299;-75
2024/01/10 10:08:21;;;;;;;7.45;4.35;;;1.20;50.50;3.20;102786.00;;;;5029796;28;20310;-74
2024/01/10 10:10:51;;;;;;;9.75;5.00;;;1.30;50.60;3.20;102790.00;;;;5027954;28;20726;-74
2024/01/10 10:13:29;;;;;;;7.68;4.90;;;1.40;50.40;3.20;102783.00;;;;5028455;28;20639;-74
2024/01/10 10:16:00;;;;;;;7.28;4.60;;;1.40;50.20;3.40;102779.00;;;;5039291;28;20282;-74
2024/01/10 10:18:28;;;;;;;8.70;5.07;;;1.50;50.20;3.50;102785.00;;;;5040395;28;20188;-74
2024/01/10 10:21:13;;;;;;;8.18;5.25;;;1.60;50.30;3.40;102777.00;;;;5028203;28;20220;-73
2024/01/10 10:23:42;;;;;;;9.00;4.10;;;1.60;50.20;3.60;102777.00;;;;5027399;28;20200;-74
2024/01/10 10:26:20;;;;;;;6.40;4.35;;;1.70;50.20;3.60;102775.00;;;;5029093;28;20192;-75
2024/01/10 10:28:47;;;;;;;8.00;4.78;;;1.80;50.10;3.80;102782.00;;;;5034876;28;20314;-75
2024/01/10 10:31:16;;;;;;;8.70;4.63;;;1.90;50.10;3.80;102776.00;;;;5034696;28;20207;-75
2024/01/10 10:33:43;;;;;;;7.97;4.63;;;1.90;50.00;3.90;102778.00;;;;5027030;28;20200;-75
2024/01/10 10:36:10;;;;;;;7.72;4.20;;;2.00;49.90;4.00;102775.00;;;;5030484;28;20235;-75
2024/01/10 10:38:38;;;;;;;8.88;4.68;;;2.10;49.80;4.10;102777.00;;;;5028836;28;20280;-75
2024/01/10 10:41:10;;;;;;;10.60;5.20;;;2.10;49.70;4.10;102782.00;;;;5029161;28;20204;-75
2024/01/10 10:43:41;;;;;;;7.22;4.78;;;2.20;49.60;4.20;102775.00;;;;5029054;28;20200;-74
2024/01/10 10:46:12;;;;;;;8.40;4.50;;;2.30;49.60;4.30;102772.00;;;;5027441;28;20203;-75
2024/01/10 10:48:39;;;;;;;8.90;5.15;;;2.40;49.50;4.30;102771.00;;;;5033910;28;20274;-75
2024/01/10 10:51:11;;;;;;;6.82;4.53;;;2.40;49.40;4.40;102776.00;;;;5033456;28;20363;-75
2024/01/10 10:53:40;;;;;;;9.23;4.90;;;2.50;49.30;4.50;102770.00;;;;5032648;28;20196;-74
2024/01/10 10:56:09;;;;;;;7.30;4.57;;;2.50;49.30;4.60;102765.00;;;;5034045;28;20204;-75
2024/01/10 10:58:40;;;;;;;8.10;3.97;;;2.60;49.30;4.60;102769.00;;;;5032655;28;20204;-75
2024/01/10 11:01:13;;;;;;;8.05;4.97;;;2.70;49.20;4.70;102770.00;;;;5034022;28;20192;-75